createdAt,value
2018-01-03T00:01:28.182Z,2.90
2018-01-03T00:03:56.508Z,3.27
2018-01-03T00:06:24.910Z,2.27
2018-01-03T00:08:55.260Z,2.40
2018-01-03T00:11:23.639Z,2.80
2018-01-03T00:13:51.983Z,2.97
2018-01-03T00:16:21.532Z,1.70
2018-01-03T00:18:49.916Z,2.10
2018-01-03T00:21:18.244Z,2.20
2018-01-03T00:23:46.564Z,1.97
2018-01-03T00:26:14.892Z,1.47
2018-01-03T00:28:43.280Z,1.77
2018-01-03T00:31:11.591Z,2.30
2018-01-03T00:33:40.037Z,1.70
2018-01-03T00:36:08.379Z,1.70
2018-01-03T00:38:36.675Z,1.63
2018-01-03T00:41:05.040Z,1.50
2018-01-03T00:43:33.356Z,1.83
2018-01-03T00:46:01.692Z,1.40
2018-01-03T00:48:30.008Z,1.97
2018-01-03T00:50:58.328Z,1.20
2018-01-03T00:53:26.648Z,1.43
2018-01-03T00:55:55.013Z,1.80
2018-01-03T00:58:23.357Z,1.47
2018-01-03T01:00:51.680Z,1.27
2018-01-03T01:03:20.007Z,1.23
2018-01-03T01:05:48.327Z,1.80
2018-01-03T01:08:16.645Z,2.00
2018-01-03T01:10:44.944Z,2.00
2018-01-03T01:13:13.284Z,1.50
2018-01-03T01:15:41.592Z,1.30
2018-01-03T01:18:09.965Z,1.00
2018-01-03T01:20:38.293Z,1.20
2018-01-03T01:23:06.624Z,1.10
2018-01-03T01:25:34.944Z,0.97
2018-01-03T01:28:03.243Z,1.23
2018-01-03T01:30:31.579Z,0.80
2018-01-03T01:32:59.920Z,0.93
2018-01-03T01:35:28.234Z,1.20
2018-01-03T01:37:56.579Z,1.40
2018-01-03T01:40:24.876Z,1.17
2018-01-03T01:42:53.243Z,1.10
2018-01-03T01:45:21.564Z,1.10
2018-01-03T01:47:49.875Z,0.70
2018-01-03T01:50:18.189Z,1.27
2018-01-03T01:52:46.522Z,1.40
2018-01-03T01:55:14.907Z,1.20
2018-01-03T01:57:43.287Z,1.30
2018-01-03T02:00:11.643Z,1.00
2018-01-03T02:02:39.985Z,1.07
2018-01-03T02:05:08.393Z,0.90
2018-01-03T02:07:36.822Z,1.33
2018-01-03T02:10:05.141Z,1.00
2018-01-03T02:12:33.477Z,1.10
2018-01-03T02:15:01.840Z,0.90
2018-01-03T02:17:30.288Z,1.00
2018-01-03T02:19:58.626Z,0.80
2018-01-03T02:22:26.974Z,1.27
2018-01-03T02:24:55.314Z,0.97
2018-01-03T02:27:23.620Z,1.53
2018-01-03T02:29:51.942Z,1.10
2018-01-03T02:32:20.239Z,1.03
2018-01-03T02:34:48.619Z,1.27
2018-01-03T02:37:16.939Z,1.20
2018-01-03T02:39:45.243Z,1.27
2018-01-03T02:42:13.569Z,1.20
2018-01-03T02:44:41.889Z,1.10
2018-01-03T02:47:10.264Z,0.90
2018-01-03T02:49:38.600Z,1.33
2018-01-03T02:52:06.919Z,1.00
2018-01-03T02:54:35.235Z,1.30
2018-01-03T02:57:03.565Z,1.00
2018-01-03T02:59:32.106Z,1.13
2018-01-03T03:02:00.432Z,1.40
2018-01-03T03:04:28.796Z,1.17
2018-01-03T03:06:57.126Z,1.30
2018-01-03T03:09:25.427Z,1.00
2018-01-03T03:11:53.741Z,0.90
2018-01-03T03:14:22.049Z,1.27
2018-01-03T03:16:50.388Z,1.23
2018-01-03T03:19:18.695Z,0.83
2018-01-03T03:21:47.007Z,1.23
2018-01-03T03:24:15.327Z,1.00
2018-01-03T03:26:43.732Z,1.00
2018-01-03T03:29:12.030Z,1.10
2018-01-03T03:31:40.339Z,0.80
2018-01-03T03:34:08.667Z,1.13
2018-01-03T03:36:36.995Z,1.27
2018-01-03T03:39:05.304Z,1.33
2018-01-03T03:41:33.627Z,1.20
2018-01-03T03:44:01.985Z,1.30
2018-01-03T03:46:30.301Z,0.87
2018-01-03T03:48:58.661Z,1.10
2018-01-03T03:51:27.042Z,1.10
2018-01-03T03:53:55.339Z,1.07
2018-01-03T03:56:23.649Z,1.20
2018-01-03T03:58:51.968Z,1.53
2018-01-03T04:01:20.279Z,1.23
2018-01-03T04:03:48.605Z,1.10
2018-01-03T04:06:16.932Z,0.60
2018-01-03T04:08:45.413Z,0.83
2018-01-03T04:11:13.851Z,1.07
2018-01-03T04:13:42.151Z,0.80
2018-01-03T04:16:10.523Z,0.90
2018-01-03T04:18:38.840Z,0.63
2018-01-03T04:21:07.148Z,0.70
2018-01-03T04:23:35.464Z,1.40
2018-01-03T04:26:04.699Z,0.97
2018-01-03T04:28:33.034Z,0.90
2018-01-03T04:31:01.328Z,0.90
2018-01-03T04:33:29.668Z,1.03
2018-01-03T04:35:57.980Z,0.83
2018-01-03T04:38:26.311Z,0.53
2018-01-03T04:40:54.636Z,1.30
2018-01-03T04:43:22.969Z,0.73
2018-01-03T04:45:51.332Z,0.70
2018-01-03T04:48:23.898Z,0.70
2018-01-03T04:50:52.203Z,0.83
2018-01-03T04:53:20.543Z,0.80
2018-01-03T04:55:48.868Z,0.90
2018-01-03T04:58:17.201Z,1.03
2018-01-03T05:00:45.531Z,1.03
2018-01-03T05:03:13.858Z,0.80
2018-01-03T05:05:42.179Z,1.20
2018-01-03T05:08:10.504Z,1.00
2018-01-03T05:10:38.887Z,0.60
2018-01-03T05:13:07.210Z,0.83
2018-01-03T05:15:35.570Z,0.70
2018-01-03T05:18:03.896Z,0.67
2018-01-03T05:20:32.525Z,0.90
2018-01-03T05:23:00.859Z,0.70
2018-01-03T05:25:29.265Z,0.77
2018-01-03T05:27:57.611Z,0.80
2018-01-03T05:30:25.978Z,0.87
2018-01-03T05:32:54.328Z,0.83
2018-01-03T05:35:22.647Z,0.80
2018-01-03T05:37:50.983Z,0.93
2018-01-03T05:40:19.312Z,0.70
2018-01-03T05:42:47.637Z,1.00
2018-01-03T05:45:16.013Z,0.70
2018-01-03T05:47:44.380Z,0.77
2018-01-03T05:50:12.713Z,1.10
2018-01-03T05:52:41.043Z,1.00
2018-01-03T05:55:09.439Z,0.80
2018-01-03T05:57:37.758Z,0.70
2018-01-03T06:00:06.105Z,0.80
2018-01-03T06:02:34.460Z,1.03
2018-01-03T06:05:02.797Z,1.00
2018-01-03T06:07:31.295Z,0.80
2018-01-03T06:09:59.655Z,0.73
2018-01-03T06:12:28.035Z,1.03
2018-01-03T06:14:56.414Z,0.90
2018-01-03T06:17:24.753Z,0.90
2018-01-03T06:19:53.119Z,0.90
2018-01-03T06:22:21.436Z,1.10
2018-01-03T06:24:49.884Z,1.30
2018-01-03T06:27:18.211Z,1.00
2018-01-03T06:29:46.544Z,0.77
2018-01-03T06:32:14.898Z,1.30
2018-01-03T06:34:43.252Z,1.03
2018-01-03T06:37:11.855Z,0.70
2018-01-03T06:39:40.197Z,0.83
2018-01-03T06:42:08.566Z,0.87
2018-01-03T06:44:37.202Z,1.03
2018-01-03T06:47:05.559Z,0.73
2018-01-03T06:49:33.892Z,1.10
2018-01-03T06:52:02.244Z,0.80
2018-01-03T06:54:30.680Z,0.67
2018-01-03T06:56:59.004Z,0.93
2018-01-03T06:59:30.560Z,0.70
2018-01-03T07:01:58.980Z,0.83
2018-01-03T07:04:27.320Z,0.80
2018-01-03T07:06:55.724Z,0.60
2018-01-03T07:09:24.076Z,0.83
2018-01-03T07:11:52.511Z,1.00
2018-01-03T07:14:20.827Z,0.77
2018-01-03T07:16:49.128Z,1.03
2018-01-03T07:19:17.941Z,0.70
2018-01-03T07:21:47.221Z,0.73
2018-01-03T07:24:15.672Z,0.60
2018-01-03T07:26:44.075Z,0.70
2018-01-03T07:29:12.437Z,0.90
2018-01-03T07:31:41.120Z,0.93
2018-01-03T07:36:41.980Z,1.27
2018-01-03T07:39:10.800Z,0.87
2018-01-03T07:41:39.930Z,1.10
2018-01-03T07:44:08.411Z,1.27
2018-01-03T07:46:36.801Z,1.47
2018-01-03T07:49:05.167Z,1.30
2018-01-03T07:51:33.497Z,1.60
2018-01-03T07:54:02.333Z,1.13
2018-01-03T07:59:04.755Z,2.03
2018-01-03T08:01:33.209Z,1.60
2018-01-03T08:04:02.429Z,1.10
2018-01-03T08:06:31.533Z,1.40
2018-01-03T08:08:59.974Z,0.90
2018-01-03T08:11:28.340Z,1.47
2018-01-03T08:13:57.052Z,0.90
2018-01-03T08:16:25.557Z,1.00
2018-01-03T08:18:54.016Z,0.60
2018-01-03T08:21:22.555Z,0.60
2018-01-03T08:23:51.177Z,0.67
2018-01-03T08:26:19.548Z,0.60
2018-01-03T08:34:31.893Z,0.70
2018-01-03T08:37:01.937Z,0.57
2018-01-03T08:39:30.437Z,0.63
2018-01-03T08:41:59.029Z,0.60
2018-01-03T08:44:27.595Z,0.60
2018-01-03T08:47:00.017Z,0.60
2018-01-03T08:52:01.182Z,0.70
2018-01-03T08:57:05.753Z,0.60
2018-01-03T09:02:07.440Z,0.50
2018-01-03T09:04:35.900Z,0.50
2018-01-03T09:07:04.657Z,0.83
2018-01-03T09:24:45.481Z,0.80
2018-01-03T09:27:13.877Z,0.80
2018-01-03T09:29:42.441Z,0.70
2018-01-03T09:32:20.915Z,0.97
2018-01-03T09:34:59.981Z,0.60
2018-01-03T09:37:30.759Z,0.50
2018-01-03T09:39:59.085Z,0.80
2018-01-03T09:42:27.407Z,0.90
2018-01-03T09:44:55.732Z,0.70
2018-01-03T09:47:24.040Z,0.70
2018-01-03T09:49:52.368Z,0.63
2018-01-03T09:52:20.691Z,0.87
2018-01-03T09:54:49.373Z,0.80
2018-01-03T09:57:17.687Z,1.00
2018-01-03T09:59:46.048Z,0.97
2018-01-03T10:02:14.371Z,0.80
2018-01-03T10:04:42.696Z,0.70
2018-01-03T10:07:11.025Z,0.80
2018-01-03T10:09:39.638Z,0.73
2018-01-03T10:12:07.969Z,0.60
2018-01-03T10:14:37.255Z,0.80
2018-01-03T10:17:05.563Z,1.50
2018-01-03T10:19:33.918Z,0.80
2018-01-03T10:22:02.245Z,0.80
2018-01-03T10:24:30.567Z,0.60
2018-01-03T10:27:01.821Z,0.80
2018-01-03T10:29:32.047Z,1.33
2018-01-03T10:32:00.468Z,1.43
2018-01-03T10:34:28.824Z,0.80
2018-01-03T10:36:57.125Z,1.00
2018-01-03T10:39:25.440Z,0.77
2018-01-03T10:41:53.760Z,1.03
2018-01-03T10:44:22.928Z,0.80
2018-01-03T10:46:51.300Z,1.30
2018-01-03T10:49:19.588Z,1.00
2018-01-03T10:51:47.927Z,1.10
2018-01-03T10:54:16.949Z,0.80
2018-01-03T10:56:45.280Z,0.93
2018-01-03T10:59:15.393Z,0.77
2018-01-03T11:01:44.154Z,1.60
2018-01-03T11:04:12.631Z,0.87
2018-01-03T11:09:13.834Z,1.37
2018-01-03T11:12:00.847Z,0.90
2018-01-03T11:14:29.278Z,1.10
2018-01-03T11:16:58.685Z,1.23
2018-01-03T11:21:59.582Z,0.90
2018-01-03T11:24:28.103Z,0.73
2018-01-03T11:26:59.228Z,1.40
2018-01-03T11:29:27.600Z,0.97
2018-01-03T11:31:56.862Z,0.67
2018-01-03T11:34:25.228Z,0.60
2018-01-03T11:36:53.556Z,0.90
2018-01-03T11:39:21.915Z,0.83
2018-01-03T11:41:51.732Z,1.37
2018-01-03T11:44:20.370Z,1.17
2018-01-03T11:46:49.712Z,0.80
2018-01-03T11:49:18.023Z,0.70
2018-01-03T11:51:46.336Z,1.40
2018-01-03T11:54:15.625Z,0.60
2018-01-03T11:56:44.152Z,1.10
2018-01-03T11:59:12.936Z,0.77
2018-01-03T12:04:20.333Z,0.63
2018-01-03T12:09:26.263Z,0.50
2018-01-03T12:14:28.338Z,0.70
2018-01-03T12:16:56.985Z,0.57
2018-01-03T12:19:25.465Z,0.70
2018-01-03T12:24:29.346Z,0.73
2018-01-03T12:29:33.056Z,0.73
2018-01-03T12:37:06.493Z,0.70
2018-01-03T12:39:34.978Z,0.70
2018-01-03T12:44:39.348Z,0.90
2018-01-03T12:47:07.693Z,0.87
2018-01-03T12:52:09.106Z,0.60
2018-01-03T12:54:37.870Z,0.70
2018-01-03T12:57:06.249Z,0.90
2018-01-03T12:59:35.064Z,0.90
2018-01-03T13:02:03.381Z,1.23
2018-01-03T13:04:32.087Z,0.87
2018-01-03T13:07:00.417Z,0.83
2018-01-03T13:09:28.744Z,0.70
2018-01-03T13:11:58.021Z,1.20
2018-01-03T13:14:26.529Z,0.80
2018-01-03T13:16:54.846Z,0.73
2018-01-03T13:19:23.235Z,1.00
2018-01-03T13:21:51.590Z,1.10
2018-01-03T13:24:19.877Z,1.37
2018-01-03T13:26:48.189Z,1.00
2018-01-03T13:29:16.541Z,0.70
2018-01-03T13:31:46.284Z,1.03
2018-01-03T13:34:14.636Z,1.00
2018-01-03T13:36:42.951Z,1.93
2018-01-03T13:39:11.266Z,1.57
2018-01-03T13:41:39.801Z,1.30
2018-01-03T13:44:08.119Z,1.27
2018-01-03T13:46:36.423Z,0.80
2018-01-03T13:49:04.740Z,1.20
2018-01-03T13:51:33.047Z,0.90
2018-01-03T13:54:01.380Z,1.47
2018-01-03T13:56:30.231Z,1.00
2018-01-03T13:58:58.527Z,0.87
2018-01-03T14:01:26.835Z,0.97
2018-01-03T14:03:55.142Z,1.27
2018-01-03T14:06:23.472Z,0.90
2018-01-03T14:08:51.778Z,1.13
2018-01-03T14:11:20.111Z,1.17
2018-01-03T14:13:48.405Z,1.27
2018-01-03T14:16:16.737Z,2.73
2018-01-03T14:18:45.052Z,1.33
2018-01-03T14:21:13.472Z,0.77
2018-01-03T14:23:41.823Z,0.80
2018-01-03T14:26:10.127Z,1.00
2018-01-03T14:28:38.513Z,1.30
2018-01-03T14:31:06.835Z,0.93
2018-01-03T14:33:35.166Z,1.13
2018-01-03T14:36:04.262Z,1.10
2018-01-03T14:38:32.571Z,1.20
2018-01-03T14:41:01.495Z,0.97
2018-01-03T14:43:29.856Z,1.10
2018-01-03T14:45:58.178Z,1.27
2018-01-03T14:48:26.492Z,1.17
2018-01-03T14:50:54.798Z,1.10
2018-01-03T14:53:23.105Z,1.40
2018-01-03T14:55:51.561Z,1.20
2018-01-03T14:58:19.861Z,1.10
2018-01-03T15:00:48.192Z,1.70
2018-01-03T15:03:16.492Z,0.83
2018-01-03T15:05:44.803Z,1.23
2018-01-03T15:08:13.200Z,1.97
2018-01-03T15:10:41.600Z,1.43
2018-01-03T15:13:10.171Z,1.50
2018-01-03T15:15:38.552Z,1.23
2018-01-03T15:18:06.872Z,1.10
2018-01-03T15:23:09.662Z,0.93
2018-01-03T15:25:37.966Z,1.57
2018-01-03T15:28:06.310Z,1.37
2018-01-03T15:30:34.644Z,1.27
2018-01-03T15:33:02.951Z,1.00
2018-01-03T15:35:31.297Z,1.63
2018-01-03T15:37:59.773Z,1.40
2018-01-03T15:40:28.103Z,1.10
2018-01-03T15:42:56.412Z,1.20
2018-01-03T15:45:24.733Z,1.10
2018-01-03T15:47:53.044Z,1.33
2018-01-03T15:50:21.364Z,1.13
2018-01-03T15:52:52.284Z,1.00
2018-01-03T15:55:20.625Z,1.37
2018-01-03T15:57:48.938Z,1.37
2018-01-03T16:00:18.197Z,1.50
2018-01-03T16:02:46.493Z,1.37
2018-01-03T16:05:14.852Z,2.67
2018-01-03T16:07:43.159Z,1.20
2018-01-03T16:10:11.524Z,1.20
2018-01-03T16:12:39.828Z,1.33
2018-01-03T16:15:08.148Z,1.37
2018-01-03T16:17:36.469Z,1.60
2018-01-03T16:20:04.770Z,1.67
2018-01-03T16:22:33.095Z,1.10
2018-01-03T16:25:01.401Z,1.63
2018-01-03T16:27:29.725Z,0.93
2018-01-03T16:29:58.032Z,1.87
2018-01-03T16:32:26.393Z,1.40
2018-01-03T16:34:54.714Z,1.83
2018-01-03T16:37:23.036Z,1.37
2018-01-03T16:39:51.343Z,1.43
2018-01-03T16:42:19.666Z,1.57
2018-01-03T16:44:47.991Z,1.30
2018-01-03T16:47:16.326Z,1.50
2018-01-03T16:49:44.721Z,1.33
2018-01-03T16:52:18.660Z,1.60
2018-01-03T16:54:46.983Z,1.50
2018-01-03T16:57:15.314Z,1.17
2018-01-03T16:59:43.668Z,1.77
2018-01-03T17:02:11.985Z,1.60
2018-01-03T17:04:40.313Z,2.00
2018-01-03T17:07:08.668Z,1.57
2018-01-03T17:09:36.939Z,1.37
2018-01-03T17:12:05.478Z,1.70
2018-01-03T17:14:33.801Z,2.47
2018-01-03T17:17:02.126Z,2.07
2018-01-03T17:19:30.431Z,1.63
2018-01-03T17:21:58.787Z,1.83
2018-01-03T17:24:27.082Z,1.83
2018-01-03T17:26:55.413Z,2.10
2018-01-03T17:29:23.728Z,1.10
2018-01-03T17:31:52.801Z,2.23
2018-01-03T17:34:21.168Z,1.00
2018-01-03T17:36:49.496Z,1.43
2018-01-03T17:39:17.835Z,1.33
2018-01-03T17:41:46.272Z,1.87
2018-01-03T17:44:15.826Z,1.67
2018-01-03T17:46:44.226Z,1.70
2018-01-03T17:49:12.627Z,1.67
2018-01-03T17:51:41.013Z,1.60
2018-01-03T17:54:09.338Z,1.33
2018-01-03T17:56:37.632Z,1.60
2018-01-03T17:59:06.653Z,2.20
2018-01-03T18:01:34.993Z,2.17
2018-01-03T18:04:03.801Z,1.80
2018-01-03T18:06:32.157Z,2.57
2018-01-03T18:09:00.508Z,2.53
2018-01-03T18:11:28.893Z,1.93
2018-01-03T18:13:57.776Z,2.20
2018-01-03T18:16:26.113Z,2.10
2018-01-03T18:18:54.462Z,3.20
2018-01-03T18:21:22.752Z,2.47
2018-01-03T18:23:51.092Z,1.70
2018-01-03T18:26:19.405Z,2.13
2018-01-03T18:28:47.752Z,1.80
2018-01-03T18:31:17.036Z,2.17
2018-01-03T18:33:45.368Z,2.33
2018-01-03T18:36:14.645Z,2.20
2018-01-03T18:38:42.943Z,2.17
2018-01-03T18:41:12.168Z,3.07
2018-01-03T18:43:40.473Z,2.40
2018-01-03T18:46:08.803Z,2.47
2018-01-03T18:48:37.136Z,1.77
2018-01-03T18:51:05.456Z,3.67
2018-01-03T18:53:33.793Z,2.00
2018-01-03T18:56:02.143Z,2.30
2018-01-03T18:58:30.976Z,2.63
2018-01-03T19:00:59.390Z,2.60
2018-01-03T19:03:27.735Z,2.30
2018-01-03T19:05:56.090Z,3.00
2018-01-03T19:08:24.399Z,2.00
2018-01-03T19:10:52.715Z,2.50
2018-01-03T19:13:21.044Z,2.63
2018-01-03T19:15:49.738Z,3.10
2018-01-03T19:18:18.073Z,2.40
2018-01-03T19:20:46.408Z,2.43
2018-01-03T19:23:14.768Z,4.03
2018-01-03T19:25:43.105Z,2.33
2018-01-03T19:28:11.460Z,1.80
2018-01-03T19:30:40.017Z,1.97
2018-01-03T19:33:08.696Z,2.23
2018-01-03T19:35:37.281Z,1.73
2018-01-03T19:38:05.774Z,1.40
2018-01-03T19:40:34.096Z,1.83
2018-01-03T19:43:02.447Z,1.37
2018-01-03T19:45:30.774Z,2.40
2018-01-03T19:47:59.173Z,2.17
2018-01-03T19:50:27.512Z,1.97
2018-01-03T19:52:55.824Z,2.00
2018-01-03T19:55:24.144Z,2.10
2018-01-03T19:57:53.383Z,3.00
2018-01-03T20:00:21.689Z,1.53
2018-01-03T20:02:50.025Z,2.60
2018-01-03T20:05:18.387Z,1.97
2018-01-03T20:07:48.587Z,2.17
2018-01-03T20:10:17.001Z,2.03
2018-01-03T20:12:45.323Z,1.80
2018-01-03T20:15:13.643Z,1.70
2018-01-03T20:17:41.954Z,2.50
2018-01-03T20:20:10.303Z,1.87
2018-01-03T20:22:38.666Z,2.00
2018-01-03T20:25:06.984Z,1.70
2018-01-03T20:27:35.295Z,2.40
2018-01-03T20:30:03.644Z,2.23
2018-01-03T20:32:31.984Z,1.73
2018-01-03T20:35:00.324Z,2.37
2018-01-03T20:37:29.104Z,2.80
2018-01-03T20:39:57.396Z,2.97
2018-01-03T20:42:25.710Z,2.03
2018-01-03T20:44:54.029Z,2.50
2018-01-03T20:47:22.424Z,1.87
2018-01-03T20:49:51.356Z,1.60
2018-01-03T20:52:19.707Z,2.00
2018-01-03T20:54:48.021Z,2.10
2018-01-03T20:57:16.340Z,2.00
2018-01-03T20:59:44.724Z,2.20
2018-01-03T21:02:13.102Z,2.23
2018-01-03T21:04:41.445Z,2.97
2018-01-03T21:07:14.791Z,2.20
2018-01-03T21:09:43.506Z,2.40
2018-01-03T21:12:12.968Z,2.17
2018-01-03T21:14:43.323Z,2.17
2018-01-03T21:17:12.782Z,2.10
2018-01-03T21:19:44.006Z,2.73
2018-01-03T21:22:12.427Z,2.40
2018-01-03T21:24:40.781Z,2.03
2018-01-03T21:27:09.158Z,1.97
2018-01-03T21:29:37.532Z,1.93
2018-01-03T21:32:05.903Z,1.73
2018-01-03T21:34:34.216Z,1.80
2018-01-03T21:37:03.572Z,2.10
2018-01-03T21:39:31.930Z,2.50
2018-01-03T21:42:00.264Z,2.30
2018-01-03T21:44:28.591Z,1.73
2018-01-03T21:46:56.972Z,1.73
2018-01-03T21:49:25.315Z,2.73
2018-01-03T21:51:53.632Z,2.27
2018-01-03T21:54:22.012Z,2.03
2018-01-03T21:56:50.380Z,1.80
2018-01-03T21:59:18.773Z,2.07
2018-01-03T22:01:47.113Z,2.20
2018-01-03T22:04:15.427Z,1.77
2018-01-03T22:06:43.744Z,3.17
2018-01-03T22:09:12.068Z,2.10
2018-01-03T22:11:40.410Z,2.57
2018-01-03T22:14:08.723Z,2.27
2018-01-03T22:16:37.050Z,1.57
2018-01-03T22:19:05.363Z,2.10
2018-01-03T22:21:33.683Z,1.57
2018-01-03T22:24:01.995Z,1.77
2018-01-03T22:26:30.324Z,2.87
2018-01-03T22:29:12.881Z,1.93
2018-01-03T22:31:41.462Z,1.40
2018-01-03T22:34:10.352Z,2.40
2018-01-03T22:36:38.911Z,1.90
2018-01-03T22:39:07.256Z,2.17
2018-01-03T22:41:35.573Z,1.80
2018-01-03T22:44:03.893Z,1.20
2018-01-03T22:46:32.200Z,1.57
2018-01-03T22:49:00.535Z,2.00
2018-01-03T22:51:28.862Z,1.60
2018-01-03T22:53:57.279Z,1.87
2018-01-03T22:56:25.820Z,2.33
2018-01-03T22:58:54.445Z,2.30
2018-01-03T23:01:22.766Z,1.70
2018-01-03T23:03:51.075Z,3.20
2018-01-03T23:06:20.241Z,1.90
2018-01-03T23:08:48.563Z,1.43
2018-01-03T23:11:16.890Z,1.40
2018-01-03T23:13:45.195Z,1.20
2018-01-03T23:16:13.579Z,2.10
2018-01-03T23:18:41.878Z,3.00
2018-01-03T23:21:10.205Z,1.80
2018-01-03T23:23:38.500Z,1.73
2018-01-03T23:26:06.901Z,1.60
2018-01-03T23:28:35.212Z,2.10
2018-01-03T23:31:03.629Z,1.83
2018-01-03T23:33:31.935Z,1.77
2018-01-03T23:36:00.332Z,2.53
2018-01-03T23:38:28.652Z,1.30
2018-01-03T23:40:56.999Z,1.77
2018-01-03T23:43:25.326Z,2.13
2018-01-03T23:45:53.644Z,1.67
2018-01-03T23:48:21.943Z,2.00
2018-01-03T23:50:50.280Z,1.13
2018-01-03T23:53:18.804Z,1.70
2018-01-03T23:55:47.140Z,2.07
2018-01-03T23:58:15.588Z,1.90
